createdAt,value
2019-01-31T00:01:01.327Z,13.83
2019-01-31T00:03:44.732Z,12.83
2019-01-31T00:06:18.985Z,14.10
2019-01-31T00:09:02.072Z,14.33
2019-01-31T00:11:33.635Z,13.63
2019-01-31T00:14:21.881Z,11.97
2019-01-31T00:17:08.452Z,12.87
2019-01-31T00:19:52.628Z,11.40
2019-01-31T00:22:40.557Z,13.00
2019-01-31T00:25:30.369Z,14.13
2019-01-31T00:28:16.991Z,12.73
2019-01-31T00:30:54.133Z,12.53
2019-01-31T00:33:31.218Z,13.43
2019-01-31T00:36:37.747Z,11.67
2019-01-31T00:39:44.109Z,12.43
2019-01-31T00:42:18.272Z,17.77
2019-01-31T00:44:52.457Z,12.67
2019-01-31T00:47:44.764Z,11.63
2019-01-31T00:50:30.887Z,15.63
2019-01-31T00:53:20.571Z,16.47
2019-01-31T00:56:14.881Z,14.23
2019-01-31T00:58:49.410Z,12.50
2019-01-31T01:01:29.712Z,14.20
2019-01-31T01:04:01.259Z,14.00
2019-01-31T01:06:35.653Z,17.33
2019-01-31T01:09:25.245Z,14.70
2019-01-31T01:12:04.503Z,16.20
2019-01-31T01:14:44.551Z,15.13
2019-01-31T01:17:16.128Z,17.53
2019-01-31T01:20:08.695Z,17.07
2019-01-31T01:22:46.168Z,14.37
2019-01-31T01:25:22.763Z,20.07
2019-01-31T01:27:54.371Z,19.87
2019-01-31T01:31:03.321Z,16.67
2019-01-31T01:33:46.719Z,19.73
2019-01-31T01:36:30.103Z,16.03
2019-01-31T01:39:31.971Z,15.67
2019-01-31T01:42:09.255Z,18.40
2019-01-31T01:45:01.411Z,19.10
2019-01-31T01:47:35.748Z,15.37
2019-01-31T01:50:19.021Z,17.17
2019-01-31T01:52:50.547Z,19.57
2019-01-31T01:55:27.607Z,17.37
2019-01-31T01:58:26.307Z,17.47
2019-01-31T02:01:27.856Z,21.13
2019-01-31T02:04:05.336Z,16.97
2019-01-31T02:06:51.921Z,18.57
2019-01-31T02:09:40.103Z,18.60
2019-01-31T02:12:14.683Z,17.43
2019-01-31T02:15:04.263Z,20.37
2019-01-31T02:17:41.774Z,22.60
2019-01-31T02:20:34.964Z,19.20
2019-01-31T02:23:06.495Z,20.33
2019-01-31T02:25:38.075Z,21.00
2019-01-31T02:28:21.196Z,22.87
2019-01-31T02:30:55.555Z,25.60
2019-01-31T02:33:29.573Z,26.63
2019-01-31T02:36:07.028Z,23.03
2019-01-31T02:38:41.085Z,25.40
2019-01-31T02:41:12.741Z,27.30
2019-01-31T02:44:13.170Z,25.43
2019-01-31T02:46:47.749Z,25.73
2019-01-31T02:49:19.280Z,25.47
2019-01-31T02:52:21.153Z,26.17
2019-01-31T02:55:21.436Z,29.03
2019-01-31T02:58:07.695Z,27.37
2019-01-31T03:00:57.132Z,24.60
2019-01-31T03:03:45.638Z,28.67
2019-01-31T03:06:37.442Z,28.80
2019-01-31T03:09:30.096Z,26.53
2019-01-31T03:12:01.691Z,29.00
2019-01-31T03:14:33.338Z,27.13
2019-01-31T03:17:28.965Z,28.70
2019-01-31T03:20:09.714Z,27.20
2019-01-31T03:23:03.772Z,28.20
2019-01-31T03:25:38.129Z,26.43
2019-01-31T03:28:18.511Z,27.10
2019-01-31T03:31:06.530Z,28.87
2019-01-31T03:33:44.047Z,26.13
2019-01-31T03:36:21.447Z,26.93
2019-01-31T03:38:55.674Z,29.47
2019-01-31T03:41:49.144Z,29.67
2019-01-31T03:44:23.579Z,26.73
2019-01-31T03:47:03.629Z,26.47
2019-01-31T03:49:37.932Z,28.10
2019-01-31T03:52:20.800Z,28.27
2019-01-31T03:55:14.686Z,31.70
2019-01-31T03:58:02.818Z,30.53
2019-01-31T04:00:59.944Z,29.00
2019-01-31T04:03:49.306Z,26.13
2019-01-31T04:06:20.027Z,28.00
2019-01-31T04:08:48.559Z,28.70
2019-01-31T04:11:36.494Z,24.97
2019-01-31T04:14:05.582Z,26.23
2019-01-31T04:16:34.052Z,27.13
2019-01-31T04:19:02.566Z,26.27
2019-01-31T04:21:31.360Z,24.23
2019-01-31T04:23:59.815Z,28.87
2019-01-31T04:26:28.330Z,24.10
2019-01-31T04:28:56.788Z,24.77
2019-01-31T04:31:25.247Z,26.07
2019-01-31T04:33:53.914Z,26.17
2019-01-31T04:36:22.405Z,25.67
2019-01-31T04:38:50.867Z,29.23
2019-01-31T04:41:19.690Z,24.90
2019-01-31T04:43:48.206Z,27.73
2019-01-31T04:46:16.678Z,27.90
2019-01-31T04:48:45.209Z,31.43
2019-01-31T04:51:13.781Z,26.07
2019-01-31T04:53:42.222Z,29.43
2019-01-31T04:56:10.687Z,27.60
2019-01-31T04:58:39.162Z,28.07
2019-01-31T05:01:07.749Z,28.73
2019-01-31T05:03:36.215Z,26.93
2019-01-31T05:06:24.137Z,27.50
2019-01-31T05:08:52.624Z,29.03
2019-01-31T05:11:21.071Z,24.97
2019-01-31T05:13:49.574Z,23.03
2019-01-31T05:16:18.127Z,25.30
2019-01-31T05:18:46.651Z,26.10
2019-01-31T05:21:15.247Z,24.53
2019-01-31T05:23:43.719Z,25.50
2019-01-31T05:26:12.582Z,24.20
2019-01-31T05:28:41.103Z,22.73
2019-01-31T05:31:09.646Z,22.13
2019-01-31T05:33:38.083Z,23.57
2019-01-31T05:36:06.590Z,23.13
2019-01-31T05:38:35.048Z,24.37
2019-01-31T05:41:03.514Z,22.93
2019-01-31T05:43:32.168Z,20.20
2019-01-31T05:46:00.804Z,21.20
2019-01-31T05:48:29.335Z,23.23
2019-01-31T05:50:57.895Z,24.67
2019-01-31T05:53:26.432Z,22.63
2019-01-31T05:55:54.890Z,19.60
2019-01-31T05:58:23.599Z,21.47
2019-01-31T06:00:52.057Z,22.43
2019-01-31T06:03:20.523Z,22.47
2019-01-31T06:05:49.071Z,23.33
2019-01-31T06:08:17.534Z,22.97
2019-01-31T06:10:46.007Z,27.10
2019-01-31T06:13:14.602Z,22.20
2019-01-31T06:15:43.147Z,24.80
2019-01-31T06:18:11.782Z,25.00
2019-01-31T06:20:40.304Z,25.40
2019-01-31T06:23:08.972Z,21.90
2019-01-31T06:25:37.441Z,24.03
2019-01-31T06:28:06.191Z,20.43
2019-01-31T06:30:34.843Z,24.20
2019-01-31T06:33:03.308Z,23.27
2019-01-31T06:35:31.956Z,23.87
2019-01-31T06:38:00.492Z,25.70
2019-01-31T06:40:28.948Z,20.60
2019-01-31T06:42:57.610Z,23.30
2019-01-31T06:45:26.070Z,21.23
2019-01-31T06:47:54.545Z,23.60
2019-01-31T06:50:23.131Z,23.77
2019-01-31T06:52:51.589Z,23.97
2019-01-31T06:55:20.130Z,22.77
2019-01-31T06:57:48.691Z,22.23
2019-01-31T07:00:19.599Z,22.77
2019-01-31T07:02:48.142Z,20.37
2019-01-31T07:05:36.133Z,18.73
2019-01-31T07:08:04.944Z,18.90
2019-01-31T07:10:33.771Z,17.73
2019-01-31T07:13:02.327Z,17.33
2019-01-31T07:15:30.777Z,14.83
2019-01-31T07:17:59.231Z,18.67
2019-01-31T07:20:27.821Z,19.07
2019-01-31T07:22:56.334Z,19.90
2019-01-31T07:25:25.654Z,18.47
2019-01-31T07:27:54.247Z,18.77
2019-01-31T07:30:26.394Z,19.13
2019-01-31T07:32:54.035Z,20.73
2019-01-31T07:35:22.600Z,20.43
2019-01-31T07:37:52.978Z,21.23
2019-01-31T07:40:22.942Z,20.70
2019-01-31T07:42:51.675Z,22.07
2019-01-31T07:45:25.518Z,21.33
2019-01-31T07:47:54.290Z,21.73
2019-01-31T07:50:23.085Z,22.97
2019-01-31T07:52:51.781Z,22.30
2019-01-31T07:55:20.476Z,24.97
2019-01-31T07:57:49.083Z,23.43
2019-01-31T08:00:19.748Z,21.27
2019-01-31T08:02:48.272Z,17.27
2019-01-31T08:05:18.412Z,18.37
2019-01-31T08:07:48.115Z,24.67
2019-01-31T08:10:34.506Z,19.40
2019-01-31T08:13:03.016Z,21.50
2019-01-31T08:15:31.847Z,23.40
2019-01-31T08:18:00.332Z,24.20
2019-01-31T08:20:28.933Z,22.53
2019-01-31T08:23:00.116Z,19.40
2019-01-31T08:25:28.069Z,20.57
2019-01-31T08:27:56.888Z,19.20
2019-01-31T08:30:34.301Z,18.90
2019-01-31T08:33:02.826Z,18.10
2019-01-31T08:35:31.277Z,19.70
2019-01-31T08:37:59.863Z,20.17
2019-01-31T08:40:28.475Z,18.97
2019-01-31T08:42:57.594Z,23.23
2019-01-31T08:45:26.228Z,20.10
2019-01-31T08:47:54.753Z,20.67
2019-01-31T08:50:28.848Z,21.90
2019-01-31T08:52:57.432Z,22.33
2019-01-31T08:55:25.957Z,20.37
2019-01-31T08:57:54.477Z,23.73
2019-01-31T09:00:30.913Z,23.83
2019-01-31T09:02:59.813Z,22.50
2019-01-31T09:05:28.406Z,19.07
2019-01-31T09:07:57.038Z,23.33
2019-01-31T09:10:34.537Z,22.53
2019-01-31T09:13:04.888Z,22.17
2019-01-31T09:15:33.482Z,23.13
2019-01-31T09:18:01.994Z,22.80
2019-01-31T09:20:36.609Z,24.63
2019-01-31T09:23:29.257Z,22.17
2019-01-31T09:26:31.322Z,23.23
2019-01-31T09:29:25.859Z,24.97
2019-01-31T09:32:12.655Z,26.47
2019-01-31T09:35:17.279Z,24.13
2019-01-31T09:37:54.273Z,24.70
2019-01-31T09:40:28.540Z,24.47
2019-01-31T09:43:05.757Z,22.83
2019-01-31T09:45:46.073Z,25.50
2019-01-31T09:48:17.770Z,26.23
2019-01-31T09:50:55.123Z,23.60
2019-01-31T09:53:26.728Z,25.00
2019-01-31T09:56:06.814Z,26.27
2019-01-31T09:58:56.400Z,23.43
2019-01-31T10:01:33.816Z,25.90
2019-01-31T10:04:05.420Z,25.37
2019-01-31T10:07:02.989Z,21.73
2019-01-31T10:09:52.356Z,24.63
2019-01-31T10:12:38.350Z,25.40
2019-01-31T10:15:18.133Z,26.80
2019-01-31T10:17:55.899Z,23.17
2019-01-31T10:20:39.360Z,25.33
2019-01-31T10:23:16.595Z,24.53
2019-01-31T10:26:21.297Z,25.40
2019-01-31T10:28:55.624Z,27.03
2019-01-31T10:31:27.199Z,29.17
2019-01-31T10:34:13.663Z,26.50
2019-01-31T10:36:59.969Z,28.13
2019-01-31T10:39:37.121Z,30.10
2019-01-31T10:42:17.264Z,25.90
2019-01-31T10:44:51.403Z,27.57
2019-01-31T10:47:34.754Z,28.70
2019-01-31T10:50:22.668Z,29.83
2019-01-31T10:52:59.925Z,31.70
2019-01-31T10:56:01.681Z,28.70
2019-01-31T10:58:41.760Z,29.33
2019-01-31T11:01:22.372Z,31.57
2019-01-31T11:03:59.145Z,30.93
2019-01-31T11:06:36.588Z,28.23
2019-01-31T11:09:13.278Z,30.70
2019-01-31T11:11:56.543Z,31.10
2019-01-31T11:14:50.572Z,27.87
2019-01-31T11:17:43.175Z,31.20
2019-01-31T11:20:34.270Z,29.70
2019-01-31T11:23:06.032Z,28.13
2019-01-31T11:25:40.453Z,32.60
2019-01-31T11:28:12.077Z,28.73
2019-01-31T11:30:49.649Z,30.23
2019-01-31T11:33:42.620Z,30.70
2019-01-31T11:36:14.253Z,29.93
2019-01-31T11:39:06.965Z,27.43
2019-01-31T11:41:41.024Z,27.17
2019-01-31T11:44:33.117Z,32.03
2019-01-31T11:47:13.212Z,25.07
2019-01-31T11:50:02.929Z,28.63
2019-01-31T11:52:37.041Z,29.37
2019-01-31T11:55:25.059Z,26.53
2019-01-31T11:57:59.426Z,30.30
2019-01-31T12:00:28.584Z,30.07
2019-01-31T12:02:57.109Z,29.77
2019-01-31T12:05:25.629Z,27.80
2019-01-31T12:07:54.381Z,31.90
2019-01-31T12:10:23.350Z,29.17
2019-01-31T12:12:52.111Z,28.53
2019-01-31T12:15:20.580Z,29.40
2019-01-31T12:17:49.159Z,28.20
2019-01-31T12:20:18.151Z,29.63
2019-01-31T12:22:46.951Z,28.87
2019-01-31T12:25:15.544Z,27.70
2019-01-31T12:27:44.131Z,29.90
2019-01-31T12:30:18.740Z,28.70
2019-01-31T12:32:47.417Z,30.77
2019-01-31T12:35:15.939Z,29.70
2019-01-31T12:37:44.457Z,30.67
2019-01-31T12:40:15.807Z,32.03
2019-01-31T12:42:44.471Z,28.03
2019-01-31T12:45:15.456Z,30.17
2019-01-31T12:47:43.907Z,28.83
2019-01-31T12:50:15.882Z,28.07
2019-01-31T12:52:44.576Z,31.80
2019-01-31T12:55:13.278Z,28.00
2019-01-31T12:57:41.790Z,31.27
2019-01-31T13:00:24.508Z,30.37
2019-01-31T13:02:53.194Z,29.40
2019-01-31T13:05:21.892Z,30.07
2019-01-31T13:07:50.353Z,28.80
2019-01-31T13:10:19.308Z,30.13
2019-01-31T13:12:49.140Z,31.80
2019-01-31T13:15:17.926Z,26.93
2019-01-31T13:17:46.611Z,27.20
2019-01-31T13:20:18.013Z,31.40
2019-01-31T13:22:47.178Z,28.10
2019-01-31T13:25:16.188Z,26.30
2019-01-31T13:27:44.876Z,30.73
2019-01-31T13:30:21.865Z,29.33
2019-01-31T13:32:51.957Z,28.80
2019-01-31T13:35:20.658Z,31.30
2019-01-31T13:37:49.133Z,30.50
2019-01-31T13:40:25.926Z,29.87
2019-01-31T13:42:54.891Z,29.07
2019-01-31T13:45:31.952Z,28.90
2019-01-31T13:48:02.818Z,29.80
2019-01-31T13:50:31.513Z,26.67
2019-01-31T13:53:00.203Z,29.17
2019-01-31T13:55:30.976Z,34.07
2019-01-31T13:57:59.501Z,27.10
2019-01-31T14:00:28.070Z,27.37
2019-01-31T14:02:56.761Z,27.13
2019-01-31T14:05:25.802Z,31.23
2019-01-31T14:07:54.407Z,25.43
2019-01-31T14:10:27.206Z,25.90
2019-01-31T14:12:55.893Z,28.03
2019-01-31T14:15:33.704Z,28.57
2019-01-31T14:17:57.905Z,29.57
2019-01-31T14:20:28.119Z,29.23
2019-01-31T14:22:56.813Z,27.57
2019-01-31T14:25:25.623Z,27.23
2019-01-31T14:27:54.230Z,31.70
2019-01-31T14:30:30.658Z,31.47
2019-01-31T14:32:59.618Z,30.67
2019-01-31T14:35:29.023Z,31.20
2019-01-31T14:37:57.552Z,30.40
2019-01-31T14:40:26.624Z,37.60
2019-01-31T14:42:55.333Z,33.20
2019-01-31T14:45:23.936Z,31.50
2019-01-31T14:47:52.404Z,31.97
2019-01-31T14:50:29.437Z,32.00
2019-01-31T14:52:58.246Z,32.27
2019-01-31T14:55:26.903Z,32.50
2019-01-31T14:57:55.700Z,30.93
2019-01-31T15:00:29.287Z,32.57
2019-01-31T15:02:57.748Z,34.87
2019-01-31T15:05:26.281Z,34.33
2019-01-31T15:07:54.991Z,33.97
2019-01-31T15:10:29.060Z,34.53
2019-01-31T15:12:57.776Z,35.03
2019-01-31T15:15:26.378Z,35.17
2019-01-31T15:17:55.173Z,33.97
2019-01-31T15:20:36.087Z,33.77
2019-01-31T15:22:59.760Z,34.03
2019-01-31T15:25:28.421Z,37.20
2019-01-31T15:27:56.892Z,32.57
2019-01-31T15:30:33.924Z,33.87
2019-01-31T15:33:04.413Z,36.60
2019-01-31T15:35:33.110Z,38.77
2019-01-31T15:38:01.582Z,37.53
2019-01-31T15:40:36.591Z,36.17
2019-01-31T15:43:05.500Z,40.17
2019-01-31T15:45:34.199Z,37.17
2019-01-31T15:48:02.924Z,40.03
2019-01-31T15:50:31.730Z,40.17
2019-01-31T15:53:00.336Z,42.63
2019-01-31T15:55:29.482Z,35.77
2019-01-31T15:57:58.085Z,43.60
2019-01-31T16:00:34.252Z,40.20
2019-01-31T16:03:02.797Z,41.63
2019-01-31T16:05:31.265Z,41.57
2019-01-31T16:07:59.945Z,39.60
2019-01-31T16:10:28.551Z,43.70
2019-01-31T16:12:57.240Z,41.57
2019-01-31T16:15:26.170Z,43.70
2019-01-31T16:17:54.914Z,43.27
2019-01-31T16:20:23.588Z,42.33
2019-01-31T16:22:52.285Z,43.23
2019-01-31T16:25:21.071Z,45.73
2019-01-31T16:27:49.607Z,43.20
2019-01-31T16:30:19.892Z,42.77
2019-01-31T16:32:48.729Z,49.03
2019-01-31T16:35:20.553Z,45.67
2019-01-31T16:37:50.546Z,44.03
2019-01-31T16:40:19.570Z,47.87
2019-01-31T16:42:48.445Z,43.30
2019-01-31T16:45:17.997Z,47.63
2019-01-31T16:48:05.956Z,48.87
2019-01-31T16:50:34.727Z,48.83
2019-01-31T16:53:03.462Z,48.73
2019-01-31T16:55:31.986Z,43.40
2019-01-31T16:58:01.003Z,49.30
2019-01-31T17:00:33.351Z,50.10
2019-01-31T17:03:02.143Z,47.20
2019-01-31T17:05:32.383Z,46.73
2019-01-31T17:08:01.460Z,48.23
2019-01-31T17:10:30.387Z,52.67
2019-01-31T17:12:59.227Z,46.13
2019-01-31T17:15:28.317Z,48.20
2019-01-31T17:17:57.061Z,47.33
2019-01-31T17:20:39.823Z,44.80
2019-01-31T17:23:08.436Z,51.17
2019-01-31T17:25:37.104Z,44.77
2019-01-31T17:28:06.203Z,47.07
2019-01-31T17:30:34.741Z,47.27
2019-01-31T17:33:03.294Z,46.60
2019-01-31T17:35:31.891Z,49.50
2019-01-31T17:38:00.627Z,48.73
2019-01-31T17:40:32.111Z,48.70
2019-01-31T17:43:00.793Z,42.43
2019-01-31T17:45:30.860Z,45.30
2019-01-31T17:47:59.798Z,44.63
2019-01-31T17:50:28.341Z,46.63
2019-01-31T17:52:57.007Z,45.03
2019-01-31T17:55:27.260Z,49.10
2019-01-31T17:57:55.804Z,44.77
2019-01-31T18:00:31.637Z,45.07
2019-01-31T18:03:00.229Z,47.77
2019-01-31T18:05:28.830Z,46.37
2019-01-31T18:07:57.431Z,43.10
2019-01-31T18:10:25.950Z,47.83
2019-01-31T18:12:54.491Z,45.67
2019-01-31T18:15:23.080Z,46.33
2019-01-31T18:17:51.604Z,40.13
2019-01-31T18:20:24.195Z,45.83
2019-01-31T18:22:52.944Z,48.10
2019-01-31T18:25:21.489Z,46.10
2019-01-31T18:27:52.963Z,48.47
2019-01-31T18:30:46.791Z,48.30
2019-01-31T18:33:15.279Z,44.80
2019-01-31T18:35:43.741Z,49.17
2019-01-31T18:38:12.398Z,46.53
2019-01-31T18:40:40.931Z,46.60
2019-01-31T18:43:10.101Z,53.47
2019-01-31T18:45:38.720Z,49.00
2019-01-31T18:48:07.435Z,49.17
2019-01-31T18:50:41.004Z,45.00
2019-01-31T18:53:09.891Z,48.57
2019-01-31T18:55:38.432Z,49.73
2019-01-31T18:58:07.383Z,43.83
2019-01-31T19:00:38.475Z,43.87
2019-01-31T19:03:07.111Z,48.97
2019-01-31T19:05:35.905Z,48.60
2019-01-31T19:08:08.620Z,50.33
2019-01-31T19:10:42.892Z,51.40
2019-01-31T19:13:05.948Z,48.50
2019-01-31T19:15:34.585Z,43.53
2019-01-31T19:18:06.106Z,42.97
2019-01-31T19:20:33.626Z,51.23
2019-01-31T19:23:03.915Z,47.63
2019-01-31T19:25:32.749Z,48.77
2019-01-31T19:28:01.463Z,49.07
2019-01-31T19:30:34.534Z,47.67
2019-01-31T19:33:03.480Z,50.37
2019-01-31T19:35:32.271Z,48.83
2019-01-31T19:38:02.362Z,50.47
2019-01-31T19:40:34.957Z,51.67
2019-01-31T19:43:03.728Z,48.73
2019-01-31T19:45:34.861Z,50.37
2019-01-31T19:48:05.324Z,49.57
2019-01-31T19:50:34.150Z,51.87
2019-01-31T19:53:02.960Z,50.23
2019-01-31T19:55:31.806Z,55.47
2019-01-31T19:58:00.277Z,47.60
2019-01-31T20:00:28.803Z,46.77
2019-01-31T20:02:57.357Z,50.70
2019-01-31T20:05:26.265Z,49.93
2019-01-31T20:07:55.418Z,54.93
2019-01-31T20:10:31.465Z,53.60
2019-01-31T20:13:00.645Z,50.97
2019-01-31T20:15:29.848Z,52.87
2019-01-31T20:17:58.626Z,55.47
2019-01-31T20:20:28.850Z,50.20
2019-01-31T20:26:00.970Z,49.97
2019-01-31T20:28:29.472Z,52.33
2019-01-31T20:30:57.933Z,49.07
2019-01-31T20:33:26.545Z,52.53
2019-01-31T20:35:55.287Z,53.47
2019-01-31T20:38:24.264Z,49.97
2019-01-31T20:40:52.882Z,51.63
2019-01-31T20:43:21.433Z,51.27
2019-01-31T20:45:49.963Z,57.50
2019-01-31T20:48:18.455Z,53.43
2019-01-31T20:50:46.977Z,50.90
2019-01-31T20:53:15.583Z,49.70
2019-01-31T20:55:44.195Z,51.93
2019-01-31T20:58:12.738Z,51.00
2019-01-31T21:00:42.878Z,48.57
2019-01-31T21:03:11.885Z,49.03
2019-01-31T21:05:40.953Z,49.80
2019-01-31T21:08:10.138Z,52.53
2019-01-31T21:10:38.745Z,52.10
2019-01-31T21:13:07.960Z,50.53
2019-01-31T21:15:36.982Z,51.60
2019-01-31T21:18:06.072Z,52.07
2019-01-31T21:20:34.657Z,45.90
2019-01-31T21:23:03.479Z,54.53
2019-01-31T21:25:34.285Z,53.17
2019-01-31T21:28:02.603Z,51.97
2019-01-31T21:30:33.558Z,48.43
2019-01-31T21:33:02.211Z,49.40
2019-01-31T21:35:31.133Z,51.20
2019-01-31T21:37:59.756Z,49.07
2019-01-31T21:40:30.969Z,50.83
2019-01-31T21:42:59.610Z,47.90
2019-01-31T21:45:28.394Z,47.77
2019-01-31T21:47:56.884Z,43.90
2019-01-31T21:50:30.530Z,48.80
2019-01-31T21:52:59.428Z,47.27
2019-01-31T21:55:28.177Z,51.83
2019-01-31T21:57:56.709Z,48.03
2019-01-31T22:00:28.357Z,48.37
2019-01-31T22:02:57.030Z,48.20
2019-01-31T22:05:25.566Z,48.57
2019-01-31T22:07:54.376Z,51.63
2019-01-31T22:10:23.017Z,48.03
2019-01-31T22:12:51.541Z,48.53
2019-01-31T22:15:25.385Z,47.63
2019-01-31T22:17:57.142Z,48.20
2019-01-31T22:20:24.893Z,47.83
2019-01-31T22:22:53.405Z,50.37
2019-01-31T22:25:23.090Z,47.70
2019-01-31T22:27:51.784Z,48.23
2019-01-31T22:30:22.689Z,49.43
2019-01-31T22:32:51.431Z,49.20
2019-01-31T22:35:20.014Z,49.20
2019-01-31T22:37:48.556Z,46.40
2019-01-31T22:40:18.269Z,48.10
2019-01-31T22:42:46.742Z,48.60
2019-01-31T22:45:21.004Z,48.17
2019-01-31T22:47:49.840Z,47.97
2019-01-31T22:50:20.231Z,46.73
2019-01-31T22:52:48.751Z,48.10
2019-01-31T22:55:19.572Z,48.00
2019-01-31T22:57:48.277Z,46.90
2019-01-31T23:00:30.400Z,49.97
2019-01-31T23:02:58.866Z,52.07
2019-01-31T23:05:27.748Z,52.53
2019-01-31T23:07:56.261Z,49.90
2019-01-31T23:10:24.796Z,50.17
2019-01-31T23:12:53.404Z,52.80
2019-01-31T23:15:21.929Z,51.67
2019-01-31T23:17:50.452Z,51.37
2019-01-31T23:20:19.052Z,50.10
2019-01-31T23:22:47.583Z,51.20
2019-01-31T23:25:16.109Z,50.33
2019-01-31T23:27:59.103Z,50.47
2019-01-31T23:30:27.727Z,49.03
2019-01-31T23:32:56.245Z,54.47
2019-01-31T23:35:24.845Z,52.17
2019-01-31T23:37:53.483Z,48.63
2019-01-31T23:40:22.117Z,49.03
2019-01-31T23:42:50.787Z,54.03
2019-01-31T23:45:20.177Z,56.17
2019-01-31T23:47:49.319Z,50.80
2019-01-31T23:50:18.003Z,47.80
2019-01-31T23:52:46.472Z,54.17
2019-01-31T23:55:16.539Z,47.77
2019-01-31T23:57:45.231Z,52.77
